Time;durP1;ratioP1;P1;durP2;ratioP2;P2;SDS_P1;SDS_P2;PMS_P1;PMS_P2;Temp;Humidity;BMP_temperature;BMP_pressure;BME280_temperature;BME280_humidity;BME280_pressure;Samples;Min_cycle;Max_cycle;Signal;HPM_P1;HPM_P2
2023/09/28 00:01:36;;;;;;;9.90;3.70;;;;;;;17.10;58.83;94219.28;5086081;28;20051;-81
2023/09/28 00:04:02;;;;;;;12.73;3.88;;;;;;;17.04;59.44;94215.28;5068055;28;20099;-80
2023/09/28 00:06:28;;;;;;;9.25;3.55;;;;;;;16.93;59.84;94219.56;5086009;28;20021;-80
2023/09/28 00:09:12;;;;;;;12.13;3.30;;;;;;;16.88;60.13;94223.31;5068095;28;20062;-80
2023/09/28 00:11:37;;;;;;;14.43;3.42;;;;;;;16.81;61.00;94223.09;5085870;28;20062;-80
2023/09/28 00:14:04;;;;;;;7.45;3.03;;;;;;;16.73;60.38;94218.63;5084387;28;20115;-80
2023/09/28 00:16:29;;;;;;;19.42;3.50;;;;;;;16.67;60.63;94218.09;5067935;28;20135;-80
2023/09/28 00:18:55;;;;;;;15.27;3.67;;;;;;;16.67;60.14;94214.63;5085955;28;20314;-79
2023/09/28 00:21:21;;;;;;;9.63;3.53;;;;;;;16.60;60.22;94212.50;5085981;28;20346;-80
2023/09/28 00:26:30;;;;;;;5.03;3.05;;;;;;;16.55;60.80;94207.38;5085616;28;20078;-80
2023/09/28 00:28:55;;;;;;;9.95;3.25;;;;;;;16.51;60.91;94212.66;5085664;28;20020;-80
2023/09/28 00:31:20;;;;;;;11.82;3.45;;;;;;;16.44;61.47;94209.75;5085543;28;20341;-81
2023/09/28 00:34:04;;;;;;;9.55;2.95;;;;;;;16.43;61.43;94214.38;5085656;28;20027;-80
2023/09/28 00:42:01;;;;;;;10.80;3.60;;;;;;;16.35;61.47;94203.75;5085397;28;20092;-81
2023/09/28 00:44:26;;;;;;;5.78;3.08;;;;;;;16.38;61.71;94211.13;5067358;28;20024;-80
2023/09/28 00:46:52;;;;;;;11.13;3.28;;;;;;;16.38;61.54;94205.75;5085376;28;20283;-81
2023/09/28 00:49:17;;;;;;;12.32;3.38;;;;;;;16.35;61.43;94201.84;5067309;28;20043;-81
2023/09/28 00:51:47;;;;;;;15.13;3.83;;;;;;;16.35;61.88;94201.06;5067152;28;20107;-80
2023/09/28 00:54:13;;;;;;;14.55;3.30;;;;;;;16.34;61.65;94208.31;5085090;28;20042;-80
2023/09/28 00:56:57;;;;;;;15.02;3.50;;;;;;;16.36;61.76;94213.38;5085032;28;20016;-80
2023/09/28 00:59:23;;;;;;;9.80;4.22;;;;;;;16.33;61.54;94208.69;5085208;28;20020;-80
2023/09/28 01:01:50;;;;;;;6.93;3.40;;;;;;;16.34;62.02;94210.25;5084817;28;20135;-81
2023/09/28 01:04:16;;;;;;;10.40;3.40;;;;;;;16.34;62.54;94204.84;5084661;28;20377;-82
2023/09/28 01:06:42;;;;;;;11.65;3.90;;;;;;;16.30;62.09;94209.34;5084844;28;20047;-82
2023/09/28 01:09:09;;;;;;;9.15;3.30;;;;;;;16.33;61.96;94206.00;5084805;28;20207;-82
2023/09/28 01:11:55;;;;;;;11.15;3.47;;;;;;;16.28;62.40;94200.84;5084539;28;20095;-82
2023/09/28 01:14:23;;;;;;;9.70;3.38;;;;;;;16.25;62.28;94196.94;5084165;28;20402;-81
2023/09/28 01:19:32;;;;;;;13.38;3.47;;;;;;;16.22;62.45;94198.41;5083174;28;20044;-82
2023/09/28 01:21:57;;;;;;;8.75;3.22;;;;;;;16.22;62.38;94202.97;5066155;28;20016;-82
2023/09/28 01:24:25;;;;;;;9.50;3.15;;;;;;;16.21;62.72;94194.13;5066350;28;20020;-81
2023/09/28 01:26:51;;;;;;;11.52;3.38;;;;;;;16.20;63.45;94195.28;5084592;28;20031;-81
2023/09/28 01:29:16;;;;;;;22.15;4.03;;;;;;;16.17;63.93;94195.16;5083213;28;20311;-81
2023/09/28 01:31:42;;;;;;;13.07;3.15;;;;;;;16.13;63.89;94207.72;5084275;28;20078;-80
2023/09/28 01:34:07;;;;;;;13.18;4.15;;;;;;;16.13;64.08;94205.81;5066502;28;20338;-81
2023/09/28 01:36:33;;;;;;;13.90;3.50;;;;;;;16.09;64.49;94194.16;5084227;28;20036;-81
2023/09/28 01:39:06;;;;;;;10.48;3.20;;;;;;;16.05;64.21;94198.66;5084014;28;20028;-80
2023/09/28 01:41:32;;;;;;;14.43;3.58;;;;;;;16.07;63.78;94206.38;5084045;28;20019;-80
2023/09/28 01:43:57;;;;;;;16.02;3.13;;;;;;;16.08;63.06;94210.63;5084101;28;20032;-80
2023/09/28 01:46:23;;;;;;;14.15;3.28;;;;;;;16.11;62.54;94201.91;5084235;28;20054;-80
2023/09/28 01:48:48;;;;;;;17.52;3.65;;;;;;;16.14;61.67;94212.75;5083921;28;20050;-80
2023/09/28 01:51:13;;;;;;;18.60;3.85;;;;;;;16.08;61.47;94198.00;5066004;28;20055;-79
2023/09/28 01:53:39;;;;;;;13.15;2.97;;;;;;;16.08;61.29;94200.69;5066193;28;20345;-79
2023/09/28 01:56:04;;;;;;;11.07;3.25;;;;;;;16.09;61.14;94188.78;5083816;28;20091;-80
2023/09/28 02:01:40;;;;;;;13.60;3.33;;;;;;;16.06;60.72;94200.22;5083763;28;20047;-80
2023/09/28 02:04:05;;;;;;;17.77;3.30;;;;;;;16.07;60.94;94201.00;5083906;28;20024;-80
2023/09/28 02:09:17;;;;;;;17.52;3.50;;;;;;;15.99;61.43;94200.78;5083607;28;20054;-81
2023/09/28 02:12:03;;;;;;;16.33;4.32;;;;;;;15.99;62.29;94206.16;5083677;28;20024;-81
2023/09/28 02:14:28;;;;;;;10.27;3.03;;;;;;;15.92;62.25;94210.56;5065573;28;20056;-82
2023/09/28 02:16:58;;;;;;;12.13;3.20;;;;;;;15.85;62.12;94203.03;5082991;28;20394;-82
2023/09/28 02:19:42;;;;;;;16.17;3.60;;;;;;;15.87;62.59;94205.41;5083631;28;20290;-81
2023/09/28 02:22:09;;;;;;;7.65;3.45;;;;;;;15.79;62.83;94202.50;5065496;28;20024;-80
2023/09/28 02:24:55;;;;;;;19.00;3.80;;;;;;;15.75;63.40;94209.69;5083309;28;20050;-80
2023/09/28 02:27:40;;;;;;;7.55;3.13;;;;;;;15.74;63.70;94208.09;5065682;28;20107;-79
2023/09/28 02:30:06;;;;;;;11.82;3.88;;;;;;;15.63;63.61;94205.06;5065303;28;20131;-79
2023/09/28 02:32:33;;;;;;;12.88;3.38;;;;;;;15.63;63.85;94215.00;5083232;28;20024;-80
2023/09/28 02:34:58;;;;;;;9.10;4.18;;;;;;;15.55;63.78;94221.28;5083057;28;20214;-80
2023/09/28 02:37:24;;;;;;;12.50;3.72;;;;;;;15.50;64.11;94221.50;5083330;28;20048;-80
2023/09/28 02:39:49;;;;;;;10.00;3.53;;;;;;;15.52;64.13;94221.94;5083229;28;20024;-80
2023/09/28 02:42:15;;;;;;;10.98;3.40;;;;;;;15.45;64.54;94220.59;5083069;28;20024;-79
2023/09/28 02:44:40;;;;;;;7.00;3.25;;;;;;;15.40;64.65;94238.84;5083173;28;20024;-80
2023/09/28 02:47:06;;;;;;;13.05;3.95;;;;;;;15.38;64.95;94236.47;5083009;28;20024;-80
2023/09/28 02:52:16;;;;;;;12.88;4.25;;;;;;;15.29;63.52;94224.28;5082923;28;20051;-80
2023/09/28 02:54:42;;;;;;;11.75;4.00;;;;;;;15.21;64.29;94239.38;5064976;28;20326;-80
2023/09/28 02:57:07;;;;;;;6.45;3.35;;;;;;;15.14;64.78;94233.75;5082958;28;20376;-80
2023/09/28 02:59:33;;;;;;;8.52;3.63;;;;;;;15.12;65.05;94238.66;5082841;28;20211;-80
2023/09/28 03:02:17;;;;;;;17.38;4.03;;;;;;;15.13;64.94;94240.25;5082845;28;20095;-80
2023/09/28 03:04:42;;;;;;;10.88;3.58;;;;;;;15.05;65.15;94234.63;5082919;28;20024;-80
2023/09/28 03:07:07;;;;;;;8.60;3.78;;;;;;;15.05;65.57;94233.84;5064761;28;20111;-81
2023/09/28 03:09:35;;;;;;;14.45;4.45;;;;;;;15.03;65.50;94231.50;5082704;28;20376;-80
2023/09/28 03:12:01;;;;;;;8.00;3.75;;;;;;;14.99;65.86;94227.91;5082761;28;20020;-80
2023/09/28 03:14:26;;;;;;;15.27;4.15;;;;;;;14.88;66.43;94234.81;5081440;28;20064;-80
2023/09/28 03:16:53;;;;;;;7.35;3.67;;;;;;;14.85;66.60;94224.72;5082878;28;20396;-81
2023/09/28 03:19:18;;;;;;;9.32;2.90;;;;;;;14.78;66.44;94214.53;5082844;28;20100;-81
2023/09/28 03:24:47;;;;;;;5.45;2.45;;;;;;;14.88;62.36;94213.34;5082753;28;20027;-80
2023/09/28 03:27:13;;;;;;;6.22;2.92;;;;;;;14.96;62.11;94220.53;5065003;28;20099;-82
2023/09/28 03:29:57;;;;;;;9.13;2.35;;;;;;;15.07;61.49;94225.47;5086652;28;20110;-80
2023/09/28 03:32:22;;;;;;;6.25;2.13;;;;;;;15.12;60.98;94217.19;5068866;28;20135;-80
2023/09/28 03:34:48;;;;;;;9.32;2.13;;;;;;;15.21;60.56;94215.22;5086580;28;20020;-80
2023/09/28 03:37:18;;;;;;;12.13;2.17;;;;;;;15.24;60.43;94223.38;5086438;28;20027;-80
2023/09/28 03:39:44;;;;;;;8.45;2.25;;;;;;;15.35;60.29;94226.41;5086595;28;20059;-79
2023/09/28 03:42:10;;;;;;;4.47;2.08;;;;;;;15.41;59.90;94214.34;5086429;28;20372;-79
2023/09/28 03:44:35;;;;;;;6.20;2.38;;;;;;;15.47;59.80;94222.97;5086415;28;20050;-79
2023/09/28 03:47:01;;;;;;;9.73;3.65;;;;;;;15.49;59.43;94215.34;5086322;28;20035;-79
2023/09/28 03:49:26;;;;;;;7.88;2.53;;;;;;;15.57;59.45;94216.34;5085114;28;20052;-79
2023/09/28 03:51:51;;;;;;;8.98;2.70;;;;;;;15.60;59.42;94221.06;5086318;28;20028;-79
2023/09/28 03:54:17;;;;;;;7.10;2.10;;;;;;;15.67;58.79;94228.56;5085992;28;20050;-80
2023/09/28 03:56:43;;;;;;;4.22;2.03;;;;;;;15.74;58.74;94224.22;5086202;28;20028;-80
2023/09/28 03:59:08;;;;;;;5.45;1.73;;;;;;;15.82;58.85;94233.31;5086006;28;20031;-79
2023/09/28 04:01:34;;;;;;;11.23;2.65;;;;;;;15.82;59.12;94236.75;5068090;28;20033;-80
2023/09/28 04:03:59;;;;;;;8.30;2.05;;;;;;;15.84;59.19;94239.91;5085810;28;20180;-79
2023/09/28 04:06:25;;;;;;;9.07;3.00;;;;;;;15.86;59.06;94234.19;5086096;28;20029;-80
2023/09/28 04:08:50;;;;;;;11.93;3.05;;;;;;;15.89;58.67;94235.41;5086111;28;20204;-81
2023/09/28 04:11:16;;;;;;;12.77;3.10;;;;;;;15.89;58.54;94219.28;5085735;28;20096;-79
2023/09/28 04:16:37;;;;;;;12.75;3.45;;;;;;;15.93;59.56;94236.31;5085755;28;20023;-80
2023/09/28 04:19:21;;;;;;;7.53;2.80;;;;;;;15.94;59.54;94227.91;5067834;28;20130;-79
2023/09/28 04:21:46;;;;;;;14.80;3.15;;;;;;;15.91;59.95;94231.25;5085695;28;20032;-81
2023/09/28 04:24:49;;;;;;;9.07;3.22;;;;;;;15.90;60.32;94235.09;5085648;28;20020;-81
2023/09/28 04:29:59;;;;;;;12.25;3.47;;;;;;;15.84;60.59;94236.44;5085485;28;20027;-81
2023/09/28 04:32:24;;;;;;;16.67;3.25;;;;;;;15.84;60.89;94237.22;5085465;28;20043;-81
2023/09/28 04:34:50;;;;;;;15.73;3.78;;;;;;;15.85;60.64;94243.34;5085633;28;20016;-80
2023/09/28 04:37:16;;;;;;;18.52;4.30;;;;;;;15.84;60.65;94237.22;5085439;28;20008;-81
2023/09/28 04:39:42;;;;;;;26.48;3.97;;;;;;;15.85;60.61;94243.34;5084303;28;20191;-81
2023/09/28 04:42:08;;;;;;;18.73;5.28;;;;;;;15.88;60.68;94241.94;5085172;28;20040;-79
2023/09/28 04:44:52;;;;;;;14.82;3.22;;;;;;;15.93;61.03;94247.06;5085347;28;20024;-79
2023/09/28 04:50:03;;;;;;;18.02;3.88;;;;;;;15.98;60.00;94246.84;5084978;28;20032;-78
2023/09/28 04:52:28;;;;;;;34.58;4.43;;;;;;;16.02;59.65;94245.06;5085225;28;20062;-78
2023/09/28 04:55:12;;;;;;;19.00;5.50;;;;;;;16.06;59.95;94248.63;5085293;28;20017;-80
2023/09/28 04:57:38;;;;;;;24.75;4.53;;;;;;;16.07;60.79;94250.19;5066994;28;20029;-81
2023/09/28 05:00:06;;;;;;;24.05;4.95;;;;;;;16.15;61.01;94259.25;5085098;28;20303;-80
2023/09/28 05:02:32;;;;;;;16.45;3.85;;;;;;;16.20;60.75;94254.44;5066931;28;20218;-80
2023/09/28 05:04:57;;;;;;;23.77;4.10;;;;;;;16.29;60.51;94261.59;5083786;28;20028;-80
2023/09/28 05:07:23;;;;;;;20.85;3.97;;;;;;;16.34;59.94;94262.13;5085083;28;20311;-80
2023/09/28 05:09:49;;;;;;;20.92;3.78;;;;;;;16.41;59.87;94258.88;5066794;28;20020;-80
2023/09/28 05:12:14;;;;;;;16.42;2.92;;;;;;;16.51;59.13;94261.09;5084743;28;20089;-81
2023/09/28 05:14:41;;;;;;;20.60;4.05;;;;;;;16.61;58.44;94265.22;5084300;28;20329;-81
2023/09/28 05:17:06;;;;;;;16.98;4.07;;;;;;;16.67;58.39;94268.44;5084517;28;20087;-80
2023/09/28 05:19:32;;;;;;;7.82;2.80;;;;;;;16.76;58.21;94266.41;5084683;28;20020;-80
2023/09/28 05:22:16;;;;;;;15.02;3.55;;;;;;;16.83;58.36;94266.63;5084573;28;20021;-81
2023/09/28 05:24:41;;;;;;;24.70;4.50;;;;;;;16.95;57.95;94263.88;5066405;28;20024;-81
2023/09/28 05:27:07;;;;;;;12.05;5.20;;;;;;;16.96;57.87;94272.75;5084329;28;20054;-82
2023/09/28 05:29:33;;;;;;;16.40;3.92;;;;;;;17.00;57.36;94277.09;5084363;28;20031;-81
2023/09/28 05:32:17;;;;;;;21.52;3.55;;;;;;;17.10;56.86;94277.75;5066256;28;20048;-81
2023/09/28 05:34:42;;;;;;;14.73;3.92;;;;;;;17.14;57.21;94274.03;5066421;28;20063;-81
2023/09/28 05:37:08;;;;;;;16.35;3.92;;;;;;;17.26;57.23;94283.94;5084170;28;20247;-81
2023/09/28 05:39:33;;;;;;;22.67;3.60;;;;;;;17.32;57.48;94281.78;5084122;28;20032;-81
2023/09/28 05:41:59;;;;;;;17.30;3.97;;;;;;;17.36;57.06;94280.75;5084198;28;20024;-81
2023/09/28 05:44:24;;;;;;;28.25;5.43;;;;;;;17.43;56.16;94288.22;5084021;28;20048;-80
2023/09/28 05:46:50;;;;;;;30.25;5.03;;;;;;;17.45;55.43;94278.66;5066343;28;20095;-80
2023/09/28 05:52:19;;;;;;;19.60;3.50;;;;;;;17.52;54.40;94283.44;5082904;28;20071;-81
2023/09/28 05:57:28;;;;;;;16.80;3.33;;;;;;;17.72;54.18;94289.72;5083731;28;20039;-81
2023/09/28 05:59:54;;;;;;;19.65;3.83;;;;;;;17.75;54.03;94297.13;5083731;28;20020;-81
2023/09/28 06:02:38;;;;;;;10.50;3.05;;;;;;;17.77;53.42;94294.09;5083646;28;20032;-81
2023/09/28 06:07:48;;;;;;;18.23;4.28;;;;;;;17.96;53.19;94293.41;5083615;28;20031;-80
2023/09/28 06:10:14;;;;;;;12.48;3.75;;;;;;;18.04;52.97;94293.22;5083416;28;20047;-80
2023/09/28 06:15:47;;;;;;;20.60;4.10;;;;;;;17.99;52.54;94290.00;5182787;27;20091;-82
2023/09/28 06:18:13;;;;;;;14.45;4.35;;;;;;;17.96;53.13;94282.63;5183024;27;20317;-83
2023/09/28 06:20:57;;;;;;;16.67;3.55;;;;;;;18.00;52.65;94289.66;5164089;27;20379;-82
2023/09/28 06:23:41;;;;;;;12.40;3.38;;;;;;;18.08;52.47;94298.72;5182597;27;20194;-82
2023/09/28 06:26:06;;;;;;;15.43;4.68;;;;;;;18.14;52.39;94291.16;5182535;27;20015;-82
2023/09/28 06:28:32;;;;;;;11.80;4.07;;;;;;;18.22;52.11;94295.56;5182566;27;20094;-81
2023/09/28 06:30:58;;;;;;;29.58;4.47;;;;;;;18.33;52.20;94293.09;5182551;27;20018;-81
2023/09/28 06:33:25;;;;;;;18.05;4.47;;;;;;;18.30;52.22;94293.78;5182402;27;20056;-79
2023/09/28 06:35:51;;;;;;;20.27;4.53;;;;;;;18.35;51.81;94291.63;5182605;27;20316;-79
2023/09/28 06:38:16;;;;;;;16.02;4.38;;;;;;;18.40;51.92;94298.69;5182334;27;20055;-79
2023/09/28 06:40:48;;;;;;;14.15;4.07;;;;;;;18.47;51.71;94295.34;5182230;27;20018;-74
2023/09/28 06:43:16;;;;;;;15.18;3.95;;;;;;;18.57;51.73;94292.09;5182305;27;20015;-76
2023/09/28 06:45:43;;;;;;;15.15;3.38;;;;;;;18.53;52.60;94300.09;5182265;27;20026;-76
2023/09/28 06:48:46;;;;;;;17.13;4.05;;;;;;;18.57;51.68;94303.66;5163431;27;20224;-77
2023/09/28 06:51:12;;;;;;;14.18;3.72;;;;;;;18.63;51.53;94304.19;5181829;27;20028;-77
2023/09/28 06:53:40;;;;;;;21.02;5.00;;;;;;;18.61;50.78;94309.16;5182189;27;20246;-77
2023/09/28 06:58:53;;;;;;;26.30;3.83;;;;;;;18.61;51.63;94311.84;5182271;27;20075;-79
2023/09/28 07:01:18;;;;;;;12.75;3.65;;;;;;;18.71;51.62;94313.22;5163127;27;20022;-75
2023/09/28 07:03:44;;;;;;;24.73;3.78;;;;;;;18.69;51.33;94315.50;5182092;27;20032;-76
2023/09/28 07:06:09;;;;;;;16.75;3.28;;;;;;;18.79;50.16;94317.66;5181926;27;20026;-76
2023/09/28 07:08:34;;;;;;;10.45;3.92;;;;;;;18.86;49.71;94325.13;5181643;27;20321;-76
2023/09/28 07:11:01;;;;;;;15.02;3.70;;;;;;;18.89;50.21;94322.50;5181274;27;20328;-75
2023/09/28 07:13:27;;;;;;;11.38;2.72;;;;;;;19.00;49.58;94325.41;5181786;27;20031;-75
2023/09/28 07:15:52;;;;;;;16.00;3.42;;;;;;;19.06;49.53;94310.50;5181964;27;20221;-75
2023/09/28 07:18:18;;;;;;;13.07;3.10;;;;;;;19.11;49.69;94320.22;5181805;27;20022;-75
2023/09/28 07:20:44;;;;;;;10.88;3.45;;;;;;;19.19;49.63;94322.72;5181482;27;20049;-75
2023/09/28 07:23:27;;;;;;;15.15;4.47;;;;;;;19.30;48.78;94332.97;5173424;27;20022;-75
2023/09/28 07:26:11;;;;;;;20.50;3.63;;;;;;;19.35;49.12;94325.31;5167652;27;20098;-75
2023/09/28 07:28:37;;;;;;;20.42;3.28;;;;;;;19.49;49.74;94315.94;5148773;27;20321;-78
2023/09/28 07:31:02;;;;;;;16.10;3.67;;;;;;;19.56;49.68;94306.03;5167431;27;20030;-77
2023/09/28 07:33:27;;;;;;;23.90;3.55;;;;;;;19.55;48.74;94317.97;5167367;27;20313;-75
2023/09/28 07:35:53;;;;;;;8.77;3.47;;;;;;;19.55;48.30;94317.19;5167373;27;20031;-75
2023/09/28 07:38:18;;;;;;;12.27;3.30;;;;;;;19.69;48.74;94312.06;5167202;27;20070;-75
2023/09/28 07:40:44;;;;;;;8.50;3.03;;;;;;;19.74;48.99;94306.38;5148667;27;20037;-75
2023/09/28 07:43:09;;;;;;;15.38;3.60;;;;;;;19.75;47.81;94309.88;5148936;27;20094;-76
2023/09/28 07:45:35;;;;;;;17.10;3.47;;;;;;;19.79;48.33;94310.72;5148781;27;20062;-75
2023/09/28 07:48:01;;;;;;;13.27;3.40;;;;;;;19.80;48.18;94313.06;5167105;27;20019;-75
2023/09/28 07:53:29;;;;;;;23.58;3.80;;;;;;;19.73;47.94;94307.50;5166806;27;20090;-75
2023/09/28 07:55:55;;;;;;;13.95;4.80;;;;;;;19.71;48.46;94304.38;5166898;27;20018;-76
2023/09/28 07:58:39;;;;;;;10.38;3.08;;;;;;;19.76;48.31;94306.81;5166961;27;20019;-77
2023/09/28 08:01:04;;;;;;;20.67;3.55;;;;;;;19.83;48.60;94306.91;5166870;27;20034;-75
2023/09/28 08:03:30;;;;;;;23.20;3.55;;;;;;;19.90;48.79;94300.06;5166877;27;20085;-76
2023/09/28 08:05:55;;;;;;;20.42;3.72;;;;;;;19.97;48.76;94306.38;5166576;27;20018;-76
2023/09/28 08:11:24;;;;;;;25.45;3.97;;;;;;;20.20;48.26;94313.69;5166576;27;20065;-76
2023/09/28 08:13:50;;;;;;;9.50;2.95;;;;;;;20.28;48.44;94303.75;5148476;27;20317;-76
2023/09/28 08:16:15;;;;;;;9.60;3.30;;;;;;;20.42;48.75;94312.09;5166820;27;20298;-76
2023/09/28 08:18:41;;;;;;;11.75;3.05;;;;;;;20.53;48.37;94299.47;5166593;27;20023;-76
2023/09/28 08:23:51;;;;;;;16.38;3.15;;;;;;;20.77;48.27;94309.13;5166782;27;20029;-76
2023/09/28 08:26:16;;;;;;;8.38;2.85;;;;;;;20.91;47.87;94302.34;5166601;27;20022;-76
2023/09/28 08:28:42;;;;;;;10.50;3.85;;;;;;;21.06;47.46;94309.47;5166481;27;20090;-77
2023/09/28 08:31:08;;;;;;;11.05;2.50;;;;;;;21.13;46.49;94297.97;5166189;27;20282;-77
2023/09/28 08:33:53;;;;;;;11.80;2.53;;;;;;;21.12;46.84;94304.53;5166217;27;20085;-77
2023/09/28 08:36:18;;;;;;;14.50;2.70;;;;;;;21.15;47.65;94301.84;5165675;27;20025;-77
2023/09/28 08:39:04;;;;;;;12.73;3.38;;;;;;;21.16;47.52;94297.97;5147653;27;20062;-77
2023/09/28 08:41:45;;;;;;;12.68;3.40;;;;;;;21.16;47.35;94297.97;5166156;27;20022;-77
2023/09/28 08:44:12;;;;;;;12.02;2.83;;;;;;;21.19;47.02;94301.91;5166175;27;20098;-77
2023/09/28 08:46:40;;;;;;;9.18;2.63;;;;;;;21.18;46.61;94289.50;5166094;27;20038;-76
2023/09/28 08:49:07;;;;;;;23.35;3.33;;;;;;;21.24;47.22;94293.44;5166117;27;20022;-76
2023/09/28 08:51:35;;;;;;;11.88;3.28;;;;;;;21.21;46.87;94299.59;5165933;27;20034;-76
2023/09/28 08:54:19;;;;;;;6.15;2.33;;;;;;;21.24;47.46;94291.50;5165843;27;20063;-77
2023/09/28 08:56:48;;;;;;;14.30;2.50;;;;;;;21.25;46.96;94300.44;5166001;27;20053;-77
2023/09/28 08:59:34;;;;;;;10.57;3.55;;;;;;;21.29;47.57;94300.44;5165755;27;20327;-78
2023/09/28 09:02:17;;;;;;;9.20;2.95;;;;;;;21.28;46.88;94296.97;5165676;27;20019;-78
2023/09/28 09:04:43;;;;;;;12.95;3.13;;;;;;;21.37;46.26;94297.47;5165666;27;20251;-77
2023/09/28 09:07:28;;;;;;;8.88;2.55;;;;;;;21.50;45.88;94294.53;5165498;27;20059;-77
2023/09/28 09:09:57;;;;;;;11.43;3.00;;;;;;;21.54;46.40;94295.34;5165876;27;20221;-76
2023/09/28 09:12:24;;;;;;;14.57;2.70;;;;;;;21.64;45.90;94292.72;5165613;27;20049;-77
2023/09/28 09:14:50;;;;;;;15.35;3.05;;;;;;;21.58;45.64;94290.72;5165749;27;20022;-79
2023/09/28 09:17:15;;;;;;;10.65;2.83;;;;;;;21.61;45.35;94279.91;5165474;27;20029;-76
2023/09/28 09:19:41;;;;;;;14.32;3.35;;;;;;;21.68;45.27;94298.19;5165480;27;20030;-79
2023/09/28 09:22:08;;;;;;;11.18;2.55;;;;;;;21.72;44.70;94293.56;5164360;27;20305;-77
2023/09/28 09:24:56;;;;;;;12.38;2.72;;;;;;;21.80;45.54;94289.78;5164447;27;20038;-77
2023/09/28 09:30:14;;;;;;;13.13;2.90;;;;;;;21.98;44.51;94297.28;5165062;27;20384;-77
2023/09/28 09:32:42;;;;;;;7.38;2.42;;;;;;;22.04;43.92;94290.34;5165010;27;20046;-75
2023/09/28 09:35:08;;;;;;;14.10;2.42;;;;;;;22.05;43.33;94286.50;5165195;27;20022;-75
2023/09/28 09:37:53;;;;;;;10.13;2.85;;;;;;;22.02;43.47;94288.03;5146541;27;20034;-76
2023/09/28 09:40:18;;;;;;;10.15;3.10;;;;;;;21.95;43.92;94287.97;5165155;27;20097;-75
2023/09/28 09:42:44;;;;;;;16.77;2.92;;;;;;;22.09;44.34;94286.53;5146638;27;20245;-75
2023/09/28 09:45:28;;;;;;;15.10;3.50;;;;;;;22.22;44.24;94295.91;5164820;27;20018;-76
2023/09/28 09:47:54;;;;;;;13.13;2.97;;;;;;;22.35;43.96;94291.78;5146431;27;20030;-75
2023/09/28 09:50:21;;;;;;;9.45;2.90;;;;;;;22.42;44.09;94283.69;5165026;27;20198;-75
2023/09/28 09:52:46;;;;;;;10.90;2.88;;;;;;;22.49;44.16;94272.09;5164827;27;20229;-77
2023/09/28 09:55:12;;;;;;;7.93;2.58;;;;;;;22.61;44.01;94266.34;5164850;27;20027;-76
2023/09/28 09:57:57;;;;;;;9.80;2.90;;;;;;;22.78;43.46;94281.19;5164878;27;20098;-76
2023/09/28 10:00:23;;;;;;;8.13;2.67;;;;;;;22.88;42.50;94276.97;5164964;27;20097;-76
2023/09/28 10:02:53;;;;;;;8.43;2.83;;;;;;;22.92;42.26;94268.81;5164792;27;20029;-76
2023/09/28 10:05:22;;;;;;;19.60;3.22;;;;;;;22.95;42.43;94268.06;5164701;27;20030;-77
2023/09/28 10:07:48;;;;;;;10.15;2.97;;;;;;;23.01;42.59;94264.59;5164614;27;20026;-77
2023/09/28 10:10:14;;;;;;;9.70;2.65;;;;;;;23.03;42.11;94267.72;5164528;27;20354;-77
2023/09/28 10:12:40;;;;;;;9.65;2.55;;;;;;;23.11;42.39;94263.09;5164401;27;20043;-77
2023/09/28 10:15:07;;;;;;;7.38;2.42;;;;;;;23.12;41.99;94258.44;5164534;27;20031;-76
2023/09/28 10:17:33;;;;;;;14.75;2.90;;;;;;;23.08;42.45;94263.88;5146122;27;20022;-77
2023/09/28 10:20:18;;;;;;;15.90;3.03;;;;;;;23.13;42.86;94268.16;5164419;27;20221;-76
2023/09/28 10:22:44;;;;;;;11.80;3.08;;;;;;;23.26;43.08;94266.63;5164408;27;20034;-79
2023/09/28 10:27:59;;;;;;;9.13;3.45;;;;;;;23.52;41.35;94265.53;5164559;27;20085;-77
2023/09/28 10:30:25;;;;;;;8.75;3.08;;;;;;;23.64;41.60;94262.44;5164409;27;20018;-78
2023/09/28 10:32:51;;;;;;;6.68;3.08;;;;;;;23.72;41.09;94267.91;5164335;27;20026;-77
2023/09/28 10:35:20;;;;;;;13.02;3.88;;;;;;;23.68;41.13;94261.69;5164081;27;20018;-80
2023/09/28 10:38:16;;;;;;;10.35;3.67;;;;;;;23.56;41.99;94254.66;5164038;27;20239;-78
2023/09/28 10:41:02;;;;;;;8.40;2.47;;;;;;;23.35;42.85;94263.56;5164031;27;20015;-78
2023/09/28 10:43:31;;;;;;;13.13;3.45;;;;;;;23.24;43.67;94249.91;5164109;27;20018;-77
2023/09/28 10:46:01;;;;;;;9.30;3.25;;;;;;;23.10;43.36;94253.41;5164134;27;20022;-78
2023/09/28 10:48:45;;;;;;;9.85;2.75;;;;;;;22.85;43.95;94253.25;5163911;27;20026;-77
2023/09/28 10:51:11;;;;;;;7.40;2.83;;;;;;;22.76;44.62;94258.28;5164150;27;20023;-77
2023/09/28 10:53:55;;;;;;;24.83;3.30;;;;;;;22.68;45.18;94246.59;5164241;27;20038;-76
2023/09/28 10:56:21;;;;;;;26.10;5.65;;;;;;;22.55;44.95;94248.06;5164378;27;20088;-77
2023/09/28 10:58:46;;;;;;;20.65;3.78;;;;;;;22.40;45.85;94245.25;5167740;27;20065;-76
2023/09/28 11:01:12;;;;;;;19.02;3.42;;;;;;;22.46;45.95;94242.19;5168460;27;20298;-77
2023/09/28 11:03:56;;;;;;;9.98;2.92;;;;;;;22.56;45.42;94244.97;5149729;27;20221;-77
2023/09/28 11:06:24;;;;;;;11.93;3.20;;;;;;;22.82;45.40;94245.88;5168089;27;20041;-77
2023/09/28 11:11:34;;;;;;;7.65;2.55;;;;;;;22.99;43.19;94239.72;5167687;27;20352;-77
2023/09/28 11:14:18;;;;;;;15.25;2.90;;;;;;;23.01;43.31;94250.22;5167826;27;20022;-77
2023/09/28 11:16:49;;;;;;;11.52;3.00;;;;;;;22.91;43.04;94235.41;5167812;27;20030;-76
2023/09/28 11:19:14;;;;;;;13.80;3.00;;;;;;;22.73;43.61;94242.72;5167968;27;20027;-77
2023/09/28 11:24:45;;;;;;;14.88;2.50;;;;;;;22.56;43.47;94236.81;5167187;27;20065;-76
2023/09/28 11:27:11;;;;;;;13.15;2.75;;;;;;;22.52;43.76;94233.31;5166687;27;20064;-77
2023/09/28 11:29:39;;;;;;;7.00;2.63;;;;;;;22.59;43.81;94236.06;5167217;27;20022;-77
2023/09/28 11:32:04;;;;;;;13.45;3.05;;;;;;;22.72;44.78;94230.31;5167437;27;20026;-77
2023/09/28 11:34:48;;;;;;;11.77;3.00;;;;;;;23.09;43.69;94235.50;5167569;27;20071;-77
2023/09/28 11:37:16;;;;;;;15.93;3.03;;;;;;;23.31;42.68;94228.19;5167632;27;20207;-77
2023/09/28 11:39:42;;;;;;;10.77;3.40;;;;;;;23.54;42.23;94229.78;5167525;27;20027;-78
2023/09/28 11:42:12;;;;;;;6.65;2.42;;;;;;;23.70;42.02;94229.41;5167319;27;20019;-77
2023/09/28 11:44:38;;;;;;;8.32;2.72;;;;;;;23.83;40.64;94220.53;5167269;27;20343;-78
2023/09/28 11:47:22;;;;;;;8.13;3.30;;;;;;;23.91;41.19;94231.38;5167234;27;20030;-78
2023/09/28 11:49:48;;;;;;;14.52;3.45;;;;;;;23.86;40.66;94235.28;5167155;27;20019;-79
2023/09/28 11:52:14;;;;;;;17.80;3.00;;;;;;;23.76;40.77;94238.75;5167161;27;20134;-78
2023/09/28 11:54:43;;;;;;;15.10;3.03;;;;;;;23.57;41.60;94234.44;5167080;27;20018;-78
2023/09/28 11:57:08;;;;;;;11.13;2.72;;;;;;;23.41;41.45;94232.88;5148605;27;20029;-78
2023/09/28 11:59:36;;;;;;;8.80;2.83;;;;;;;23.35;41.67;94241.81;5166932;27;20213;-77
2023/09/28 12:02:01;;;;;;;11.70;3.15;;;;;;;23.28;41.94;94220.78;5166979;27;20051;-77
2023/09/28 12:04:27;;;;;;;17.38;2.80;;;;;;;23.27;42.08;94224.69;5166898;27;20042;-77
2023/09/28 12:06:53;;;;;;;13.73;3.20;;;;;;;23.30;42.53;94231.28;5148654;27;20276;-77
2023/09/28 12:09:19;;;;;;;11.18;2.92;;;;;;;23.38;42.22;94217.31;5166640;27;20038;-78
2023/09/28 12:11:45;;;;;;;9.85;2.83;;;;;;;23.44;42.30;94221.22;5166625;27;20046;-78
2023/09/28 12:14:29;;;;;;;16.00;2.80;;;;;;;23.38;42.22;94225.47;5166920;27;20022;-78
2023/09/28 12:17:14;;;;;;;19.48;4.05;;;;;;;23.50;42.25;94216.16;5166502;27;20088;-77
2023/09/28 12:19:40;;;;;;;15.98;2.70;;;;;;;23.55;41.84;94229.41;5148103;27;20023;-76
2023/09/28 12:22:06;;;;;;;6.97;2.67;;;;;;;23.63;41.69;94222.81;5166583;27;20022;-76
2023/09/28 12:24:31;;;;;;;5.45;2.55;;;;;;;23.74;40.92;94222.03;5166605;27;20014;-76
2023/09/28 12:30:22;;;;;;;11.50;3.22;;;;;;;23.52;41.24;94222.00;5166588;27;20026;-82
2023/09/28 12:32:51;;;;;;;11.25;2.47;;;;;;;23.36;41.79;94227.81;5166392;27;20027;-78
2023/09/28 12:35:17;;;;;;;12.43;2.80;;;;;;;23.27;41.76;94227.41;5166184;27;20029;-79
2023/09/28 12:37:43;;;;;;;13.40;3.17;;;;;;;23.14;42.53;94229.72;5147795;27;20221;-78
2023/09/28 12:40:11;;;;;;;18.10;3.17;;;;;;;23.00;42.60;94221.50;5166138;27;20029;-76
2023/09/28 12:42:56;;;;;;;10.25;2.83;;;;;;;22.89;42.94;94229.59;5166042;27;20018;-76
2023/09/28 12:45:21;;;;;;;7.82;2.83;;;;;;;22.81;43.23;94225.28;5166105;27;20022;-76